Time;durP1;ratioP1;P1;durP2;ratioP2;P2;SDS_P1;SDS_P2;PMS_P1;PMS_P2;Temp;Humidity;BMP_temperature;BMP_pressure;BME280_temperature;BME280_humidity;BME280_pressure;Samples;Min_cycle;Max_cycle;Signal;HPM_P1;HPM_P2
2023/03/04 01:47:59;;;;;;;27.52;13.50;;;-0.80;99.90;;;;;;4958277;28;20201;-91
2023/03/04 01:50:34;;;;;;;31.50;14.97;;;-0.80;99.90;;;;;;4950673;28;20914;-90
2023/03/04 01:53:01;;;;;;;32.63;14.35;;;-0.90;99.90;;;;;;4951610;28;20216;-90
2023/03/04 01:55:28;;;;;;;30.85;12.95;;;-0.90;99.90;;;;;;4948378;28;20185;-90
2023/03/04 01:57:56;;;;;;;33.25;15.77;;;;;;;;;;4945727;28;20180;-90
2023/03/04 02:00:24;;;;;;;31.88;14.25;;;-0.90;99.90;;;;;;4957198;28;20269;-91
2023/03/04 02:02:53;;;;;;;32.28;13.68;;;-1.10;99.90;;;;;;4940985;28;20371;-90
2023/03/04 02:05:21;;;;;;;29.42;14.10;;;-1.10;99.90;;;;;;4956054;28;20235;-91
2023/03/04 02:07:46;;;;;;;32.90;13.90;;;-1.10;99.90;;;;;;4941414;28;20185;-90
2023/03/04 02:10:12;;;;;;;28.93;15.07;;;-1.10;99.90;;;;;;4961267;28;20502;-90
2023/03/04 02:12:38;;;;;;;29.47;13.90;;;-1.00;99.90;;;;;;4959153;28;20443;-90
2023/03/04 02:15:05;;;;;;;36.97;15.27;;;-1.00;99.90;;;;;;4958964;28;20191;-90
2023/03/04 02:17:31;;;;;;;35.17;15.20;;;-0.20;99.90;;;;;;4942524;28;20191;-90
2023/03/04 02:20:13;;;;;;;28.35;13.65;;;-1.20;99.90;;;;;;4939402;28;21094;-91
2023/03/04 02:22:46;;;;;;;33.40;14.70;;;-1.30;99.90;;;;;;4947204;28;20204;-90
2023/03/04 02:25:22;;;;;;;33.80;15.65;;;-1.30;99.90;;;;;;4957261;28;20191;-90
2023/03/04 02:27:48;;;;;;;30.55;13.93;;;-1.30;99.90;;;;;;4948550;28;20187;-91
2023/03/04 02:30:20;;;;;;;36.10;14.83;;;-1.30;99.90;;;;;;4941487;28;20255;-89
2023/03/04 02:32:45;;;;;;;43.55;16.42;;;-1.30;99.90;;;;;;4949114;28;20279;-89
2023/03/04 02:35:18;;;;;;;35.93;14.53;;;-1.30;99.90;;;;;;4939405;28;20279;-91
2023/03/04 02:37:45;;;;;;;37.35;14.77;;;-1.30;99.90;;;;;;4931363;28;20213;-90
2023/03/04 02:40:22;;;;;;;39.05;13.95;;;-1.30;99.90;;;;;;4944391;28;20254;-90
2023/03/04 02:42:48;;;;;;;32.83;14.35;;;-1.40;99.90;;;;;;4958760;28;20737;-90
2023/03/04 02:45:39;;;;;;;34.17;15.40;;;-1.50;99.90;;;;;;4932086;28;20180;-90
2023/03/04 02:48:05;;;;;;;43.22;15.48;;;-1.40;99.90;;;;;;4941340;28;20516;-90
2023/03/04 02:50:34;;;;;;;37.07;15.07;;;-1.40;99.90;;;;;;4952967;28;20216;-90
2023/03/04 02:53:00;;;;;;;31.55;14.73;;;-1.40;99.90;;;;;;4952192;28;20512;-90
2023/03/04 02:55:25;;;;;;;26.43;14.50;;;-1.40;99.90;;;;;;4944537;28;20578;-90
2023/03/04 02:57:51;;;;;;;28.60;14.50;;;-1.40;99.90;;;;;;4960270;28;21179;-90
2023/03/04 03:00:16;;;;;;;27.20;12.63;;;-1.40;99.90;;;;;;4945176;28;20280;-89
2023/03/04 03:02:42;;;;;;;26.97;14.37;;;-1.50;99.90;;;;;;4962963;28;20188;-90
2023/03/04 03:05:08;;;;;;;33.67;13.23;;;-1.50;99.90;;;;;;4944149;28;20177;-90
2023/03/04 03:07:37;;;;;;;26.40;12.13;;;-1.50;99.90;;;;;;4953869;28;20185;-90
2023/03/04 03:10:03;;;;;;;28.15;12.98;;;-1.60;99.90;;;;;;4954065;28;20192;-89
2023/03/04 03:12:28;;;;;;;33.13;14.50;;;-1.50;99.90;;;;;;4939523;28;20188;-90
2023/03/04 03:14:53;;;;;;;26.73;12.50;;;-1.50;99.90;;;;;;4954546;28;20880;-90
2023/03/04 03:17:19;;;;;;;32.00;13.73;;;-1.60;99.90;;;;;;4942331;28;20227;-90
2023/03/04 03:19:44;;;;;;;27.07;12.03;;;-1.60;99.90;;;;;;4934034;28;20215;-89
2023/03/04 03:22:10;;;;;;;31.50;13.00;;;-1.80;99.90;;;;;;4953926;28;20204;-90
2023/03/04 03:24:35;;;;;;;25.70;12.10;;;-1.80;99.90;;;;;;4944915;28;20365;-90
2023/03/04 03:27:01;;;;;;;29.93;13.00;;;-1.80;99.90;;;;;;4943648;28;20279;-89
2023/03/04 03:29:27;;;;;;;22.30;10.80;;;-1.80;99.90;;;;;;4954899;28;20200;-90
2023/03/04 03:31:52;;;;;;;22.60;11.30;;;-1.80;99.90;;;;;;4968258;28;20243;-90
2023/03/04 03:34:18;;;;;;;33.87;13.80;;;;;;;;;;4933636;28;20192;-89
2023/03/04 03:36:44;;;;;;;36.87;14.53;;;;;;;;;;4929500;28;20873;-90
2023/03/04 03:39:10;;;;;;;28.23;11.93;;;;;;;;;;4931111;28;20433;-90
2023/03/04 03:41:36;;;;;;;29.00;13.40;;;;;;;;;;4933165;28;20541;-90
2023/03/04 03:44:02;;;;;;;30.73;13.77;;;;;;;;;;4929509;28;20450;-90
2023/03/04 03:46:28;;;;;;;23.83;12.17;;;;;;;;;;4930301;28;20448;-90
2023/03/04 03:48:54;;;;;;;24.02;12.75;;;;;;;;;;4961950;28;20429;-89
2023/03/04 03:51:20;;;;;;;35.97;12.83;;;;;;;;;;4946521;28;20189;-90
2023/03/04 03:53:45;;;;;;;29.90;12.20;;;-2.00;99.90;;;;;;4932262;28;20546;-89
2023/03/04 03:56:11;;;;;;;26.30;10.60;;;-2.00;99.90;;;;;;4948916;28;20911;-89
2023/03/04 03:58:37;;;;;;;25.00;11.87;;;;;;;;;;4943173;28;20193;-89
2023/03/04 04:01:03;;;;;;;26.47;11.23;;;;;;;;;;4940540;28;20274;-89
2023/03/04 04:03:29;;;;;;;29.27;11.50;;;;;;;;;;4929076;28;20483;-89
2023/03/04 04:05:55;;;;;;;24.00;10.45;;;;;;;;;;4959201;28;20177;-89
2023/03/04 04:08:21;;;;;;;27.87;11.23;;;;;;;;;;4965870;28;20791;-89
2023/03/04 04:10:47;;;;;;;23.43;11.53;;;;;;;;;;4929075;28;20540;-90
2023/03/04 04:13:13;;;;;;;27.47;11.83;;;;;;;;;;4930575;28;20455;-90
2023/03/04 04:15:39;;;;;;;31.37;10.90;;;;;;;;;;4950829;28;20425;-89
2023/03/04 04:18:06;;;;;;;37.20;13.35;;;;;;;;;;4958057;28;20443;-89
2023/03/04 04:20:32;;;;;;;38.72;13.48;;;;;;;;;;4931398;28;20208;-89
2023/03/04 04:22:57;;;;;;;29.40;11.43;;;;;;;;;;4944870;28;20277;-89
2023/03/04 04:25:23;;;;;;;29.10;12.60;;;;;;;;;;4945174;28;20801;-89
2023/03/04 04:27:49;;;;;;;31.40;11.17;;;;;;;;;;4938236;28;20505;-90
2023/03/04 04:30:15;;;;;;;35.40;13.70;;;;;;;;;;4931742;28;20441;-90
2023/03/04 04:32:41;;;;;;;29.42;11.38;;;;;;;;;;4952195;28;20468;-89
2023/03/04 04:35:07;;;;;;;32.80;13.27;;;-2.40;99.90;;;;;;4959526;28;20185;-87
2023/03/04 04:37:33;;;;;;;35.25;13.80;;;-2.40;99.90;;;;;;4943325;28;20534;-87
2023/03/04 04:39:58;;;;;;;34.93;13.23;;;-2.40;99.90;;;;;;4944989;28;20212;-88
2023/03/04 04:42:24;;;;;;;34.10;14.87;;;-2.40;99.90;;;;;;4938259;28;20181;-88
2023/03/04 04:44:51;;;;;;;36.10;12.43;;;-2.40;99.90;;;;;;4939170;28;20268;-90
2023/03/04 04:47:17;;;;;;;30.73;13.30;;;-2.30;99.90;;;;;;4944350;28;20314;-89
2023/03/04 04:49:42;;;;;;;35.40;13.90;;;;;;;;;;4958756;28;20541;-88
2023/03/04 04:52:08;;;;;;;30.97;13.47;;;;;;;;;;4945932;28;20189;-88
2023/03/04 04:54:34;;;;;;;31.20;14.83;;;-2.30;99.90;;;;;;4966155;28;20447;-89
2023/03/04 04:56:59;;;;;;;33.73;14.30;;;-2.30;99.90;;;;;;4955632;28;20461;-89
2023/03/04 04:59:25;;;;;;;41.20;15.67;;;-2.20;99.90;;;;;;4944495;28;20259;-88
2023/03/04 05:01:50;;;;;;;37.47;15.37;;;-2.20;99.90;;;;;;4951899;28;20264;-88
2023/03/04 05:04:16;;;;;;;41.97;15.20;;;-2.20;99.90;;;;;;4955144;28;20214;-88
2023/03/04 05:06:42;;;;;;;41.27;16.83;;;-2.20;99.90;;;;;;4939501;28;20184;-88
2023/03/04 05:09:07;;;;;;;44.63;15.15;;;-2.20;99.90;;;;;;4947855;28;20274;-88
2023/03/04 05:11:33;;;;;;;41.70;17.00;;;-2.20;99.90;;;;;;4943389;28;20277;-88
2023/03/04 05:13:59;;;;;;;35.77;15.10;;;;;;;;;;4948089;28;20201;-89
2023/03/04 05:16:24;;;;;;;44.43;19.47;;;-2.10;99.90;;;;;;4952021;28;20680;-88
2023/03/04 05:18:50;;;;;;;37.27;15.67;;;-2.00;99.90;;;;;;4953929;28;20445;-88
2023/03/04 05:21:16;;;;;;;37.80;15.30;;;;;;;;;;4948983;28;20944;-89
2023/03/04 05:23:42;;;;;;;45.00;17.05;;;-1.80;99.90;;;;;;4958722;28;20700;-88
2023/03/04 05:26:13;;;;;;;33.47;12.95;;;-1.80;99.90;;;;;;4943650;28;20181;-89
2023/03/04 05:28:38;;;;;;;38.38;17.52;;;-1.70;99.90;;;;;;4941333;28;20199;-88
2023/03/04 05:31:04;;;;;;;38.77;17.60;;;-1.70;99.90;;;;;;4933985;28;20185;-89
2023/03/04 05:33:30;;;;;;;45.70;17.60;;;;;;;;;;4937079;28;20212;-88
2023/03/04 05:35:55;;;;;;;36.47;17.25;;;-1.80;99.90;;;;;;4942446;28;20189;-89
2023/03/04 05:38:22;;;;;;;45.97;15.90;;;;;;;;;;4944565;28;20187;-88
2023/03/04 05:40:48;;;;;;;54.75;19.67;;;;;;;;;;4932990;28;20213;-89
2023/03/04 05:43:14;;;;;;;48.35;17.70;;;-2.10;99.90;;;;;;4948929;28;20417;-88
2023/03/04 05:45:41;;;;;;;49.55;18.50;;;-2.10;99.90;;;;;;4949097;28;20760;-88
2023/03/04 05:48:06;;;;;;;35.97;16.17;;;-2.00;99.90;;;;;;4938280;28;20219;-88
2023/03/04 05:50:32;;;;;;;38.10;17.20;;;-2.00;99.90;;;;;;4936345;28;20180;-89
2023/03/04 05:52:58;;;;;;;45.35;16.08;;;-2.10;99.90;;;;;;4946392;28;20463;-88
2023/03/04 05:55:24;;;;;;;33.20;15.03;;;-2.10;99.90;;;;;;4954413;28;20210;-88
2023/03/04 05:57:50;;;;;;;35.53;17.50;;;-1.90;99.90;;;;;;4963467;28;20562;-88
2023/03/04 06:00:16;;;;;;;48.93;16.30;;;-2.00;99.90;;;;;;4968981;28;20484;-88
2023/03/04 06:02:43;;;;;;;49.40;17.55;;;-2.00;99.90;;;;;;4948238;28;20260;-88
2023/03/04 06:05:10;;;;;;;52.55;18.60;;;-2.00;99.90;;;;;;4959719;28;20183;-90
2023/03/04 06:07:36;;;;;;;47.63;16.20;;;;;;;;;;4944788;28;20546;-89
2023/03/04 06:10:02;;;;;;;42.40;17.00;;;-2.00;99.90;;;;;;4934687;28;20262;-89
2023/03/04 06:12:27;;;;;;;59.22;19.83;;;-2.00;99.90;;;;;;4933936;28;20472;-89
2023/03/04 06:14:53;;;;;;;55.20;18.60;;;-1.90;99.90;;;;;;4954666;28;20220;-89
2023/03/04 06:17:19;;;;;;;54.90;18.57;;;-1.80;99.90;;;;;;4931662;28;20191;-89
2023/03/04 06:19:44;;;;;;;51.17;20.83;;;-1.60;99.90;;;;;;4935039;28;20488;-89
2023/03/04 06:22:10;;;;;;;47.53;16.90;;;-1.50;99.90;;;;;;4951278;28;21019;-89
2023/03/04 06:24:36;;;;;;;44.30;17.00;;;;;;;;;;4943384;28;20199;-89
2023/03/04 06:27:02;;;;;;;41.27;19.43;;;-1.30;99.90;;;;;;4961242;28;20467;-89
2023/03/04 06:29:28;;;;;;;37.22;17.45;;;;;;;;;;4936772;28;20443;-89
2023/03/04 06:31:54;;;;;;;59.70;18.92;;;;;;;;;;4932581;28;20188;-90
2023/03/04 06:34:21;;;;;;;45.57;19.17;;;-1.00;99.90;;;;;;4929010;28;20211;-89
2023/03/04 06:36:47;;;;;;;38.35;17.75;;;-0.90;99.90;;;;;;4932086;28;20483;-90
2023/03/04 06:39:13;;;;;;;49.07;19.17;;;-0.80;99.90;;;;;;4943882;28;20192;-89
2023/03/04 06:41:38;;;;;;;49.73;18.97;;;-0.60;99.90;;;;;;4941510;28;20450;-89
2023/03/04 06:44:05;;;;;;;44.00;19.10;;;-0.40;99.90;;;;;;4929247;28;20623;-91
2023/03/04 06:46:33;;;;;;;64.97;23.40;;;-0.20;99.90;;;;;;4955170;28;20765;-89
2023/03/04 06:48:58;;;;;;;41.53;18.52;;;-0.20;99.90;;;;;;4929843;28;20188;-89
2023/03/04 06:51:24;;;;;;;55.87;21.80;;;-0.10;99.90;;;;;;4940426;28;20176;-88
2023/03/04 06:53:50;;;;;;;47.90;20.30;;;-0.10;99.90;;;;;;4942604;28;20637;-89
2023/03/04 06:56:15;;;;;;;44.50;17.30;;;0.70;99.90;;;;;;4945027;28;20708;-88
2023/03/04 06:58:42;;;;;;;41.90;17.47;;;0.00;99.90;;;;;;4955041;28;20200;-92
2023/03/04 07:01:16;;;;;;;39.90;18.02;;;-0.10;99.90;;;;;;4939883;28;20220;-89
2023/03/04 07:03:42;;;;;;;42.22;18.33;;;0.20;99.90;;;;;;4935511;28;20601;-89
2023/03/04 07:06:13;;;;;;;42.53;17.53;;;0.20;99.90;;;;;;4944134;29;20173;-89
2023/03/04 07:08:39;;;;;;;43.83;18.15;;;0.30;99.90;;;;;;4955878;28;20436;-89
2023/03/04 07:11:04;;;;;;;47.35;19.52;;;0.40;99.90;;;;;;4957864;28;20763;-89
2023/03/04 07:13:30;;;;;;;47.70;18.60;;;;;;;;;;4961120;28;20236;-89
2023/03/04 07:15:58;;;;;;;51.25;19.45;;;0.70;99.90;;;;;;4956682;28;20668;-90
2023/03/04 07:18:24;;;;;;;45.88;18.48;;;;;;;;;;4947066;28;20191;-90
2023/03/04 07:20:52;;;;;;;38.75;18.90;;;0.60;99.90;;;;;;4952097;28;20224;-85
2023/03/04 07:23:18;;;;;;;38.55;17.75;;;;;;;;;;4954858;28;20225;-87
2023/03/04 07:25:44;;;;;;;48.88;16.98;;;;;;;;;;4947291;28;20681;-88
2023/03/04 07:28:10;;;;;;;41.80;17.45;;;;;;;;;;4957032;28;20235;-88
2023/03/04 07:30:36;;;;;;;43.33;18.90;;;;;;;;;;4956505;28;20187;-88
2023/03/04 07:33:02;;;;;;;39.10;17.70;;;;;;;;;;4952525;28;20204;-89
2023/03/04 07:35:28;;;;;;;39.23;16.33;;;1.30;99.90;;;;;;4954993;28;20211;-88
2023/03/04 07:37:53;;;;;;;37.87;17.53;;;1.60;99.90;;;;;;4957352;28;20447;-89
2023/03/04 07:40:19;;;;;;;36.60;16.63;;;2.60;99.90;;;;;;4954862;28;20226;-88
2023/03/04 07:42:49;;;;;;;56.77;19.47;;;2.20;99.90;;;;;;4933735;28;20207;-88
2023/03/04 07:45:15;;;;;;;42.35;17.13;;;2.20;99.90;;;;;;4962435;28;20413;-88
2023/03/04 07:47:41;;;;;;;34.10;15.67;;;;;;;;;;4956971;28;20614;-89
2023/03/04 07:50:07;;;;;;;31.63;14.60;;;2.50;99.90;;;;;;4969647;23;20292;-81
2023/03/04 07:52:37;;;;;;;36.40;14.73;;;2.50;99.90;;;;;;4947615;28;20594;-83
2023/03/04 07:55:03;;;;;;;44.70;17.52;;;2.40;99.90;;;;;;4951122;28;20724;-84
2023/03/04 07:57:29;;;;;;;43.33;16.37;;;2.20;99.90;;;;;;4951807;28;20304;-86
2023/03/04 07:59:54;;;;;;;35.50;16.87;;;2.20;99.90;;;;;;4950404;28;20671;-83
2023/03/04 08:02:20;;;;;;;38.27;17.00;;;2.10;99.90;;;;;;4939222;28;20258;-84
2023/03/04 08:04:45;;;;;;;34.83;15.43;;;2.10;99.90;;;;;;4936111;28;20263;-84
2023/03/04 08:07:11;;;;;;;36.00;15.87;;;2.10;99.90;;;;;;4938735;28;20688;-83
2023/03/04 08:09:36;;;;;;;31.37;16.10;;;2.20;99.90;;;;;;4950969;28;20190;-85
2023/03/04 08:12:02;;;;;;;38.03;17.00;;;2.30;99.90;;;;;;4937557;28;20593;-87
2023/03/04 08:14:27;;;;;;;34.17;16.83;;;2.30;99.90;;;;;;4935551;28;20621;-86
2023/03/04 08:16:53;;;;;;;36.10;15.60;;;2.40;99.90;;;;;;4931185;28;20638;-85
2023/03/04 08:19:18;;;;;;;33.43;14.80;;;2.50;99.90;;;;;;4951973;28;20604;-86
2023/03/04 08:21:44;;;;;;;37.43;16.93;;;2.40;99.90;;;;;;4935590;28;20200;-86
2023/03/04 08:24:10;;;;;;;35.63;16.43;;;2.50;99.90;;;;;;4933037;28;20253;-85
2023/03/04 08:26:40;;;;;;;30.45;14.48;;;2.60;99.90;;;;;;4949610;28;20256;-86
2023/03/04 08:29:08;;;;;;;45.50;15.68;;;2.70;99.90;;;;;;4948904;28;20930;-85
2023/03/04 08:31:33;;;;;;;33.60;15.95;;;2.70;99.90;;;;;;4932628;28;20214;-86
2023/03/04 08:34:00;;;;;;;32.27;16.97;;;2.70;99.90;;;;;;4954839;28;20203;-87
2023/03/04 08:36:26;;;;;;;36.58;16.67;;;3.00;99.90;;;;;;4930959;29;20772;-85
2023/03/04 08:38:51;;;;;;;32.80;16.50;;;3.10;99.90;;;;;;4949575;28;20297;-87
2023/03/04 08:41:17;;;;;;;36.13;18.33;;;3.10;99.90;;;;;;4927583;28;20231;-83
2023/03/04 08:43:43;;;;;;;38.67;16.20;;;3.00;99.90;;;;;;4941074;28;20368;-83
2023/03/04 08:46:08;;;;;;;33.90;17.50;;;2.90;99.90;;;;;;4930241;28;20609;-81
2023/03/04 08:48:35;;;;;;;28.97;15.83;;;3.00;99.90;;;;;;4951513;28;20280;-85
2023/03/04 08:51:05;;;;;;;38.88;17.20;;;2.90;99.90;;;;;;4925579;28;20192;-81
2023/03/04 08:53:31;;;;;;;42.13;19.48;;;2.80;99.90;;;;;;4922996;28;20184;-84
2023/03/04 08:55:56;;;;;;;35.63;16.47;;;2.90;99.90;;;;;;4937194;28;20216;-83
2023/03/04 08:58:22;;;;;;;35.40;19.23;;;3.10;99.90;;;;;;4931733;28;20208;-81
2023/03/04 09:00:50;;;;;;;44.10;19.80;;;3.40;99.90;;;;;;4925056;28;20263;-82
2023/03/04 09:03:18;;;;;;;38.80;17.73;;;3.70;99.90;;;;;;4919246;28;20183;-83
2023/03/04 09:05:45;;;;;;;38.08;20.33;;;3.70;99.90;;;;;;4933114;28;20192;-81
2023/03/04 09:08:10;;;;;;;36.75;18.20;;;3.90;99.90;;;;;;4931177;28;20203;-84
2023/03/04 09:10:36;;;;;;;33.73;18.20;;;3.90;99.90;;;;;;4931952;28;20192;-80
2023/03/04 09:13:01;;;;;;;35.47;20.20;;;3.80;99.90;;;;;;4942419;28;20280;-80
2023/03/04 09:15:27;;;;;;;45.30;20.07;;;4.30;99.90;;;;;;4930400;28;20633;-81
2023/03/04 09:17:52;;;;;;;36.57;18.70;;;4.10;99.90;;;;;;4939501;28;20215;-83
2023/03/04 09:20:19;;;;;;;45.00;18.83;;;4.30;99.90;;;;;;4948514;28;20212;-83
2023/03/04 09:22:45;;;;;;;33.75;18.92;;;4.40;99.90;;;;;;4950905;28;20627;-83
2023/03/04 09:25:14;;;;;;;35.30;18.97;;;4.60;99.90;;;;;;4936268;28;20279;-86
2023/03/04 09:27:40;;;;;;;46.85;20.00;;;4.20;99.90;;;;;;4949793;28;20259;-84
2023/03/04 09:30:07;;;;;;;34.28;18.70;;;4.20;99.90;;;;;;4924683;28;20189;-84
2023/03/04 09:32:32;;;;;;;39.40;19.27;;;4.40;99.90;;;;;;4935621;28;20184;-82
2023/03/04 09:34:58;;;;;;;44.00;17.90;;;4.60;99.90;;;;;;4934934;28;20194;-83
2023/03/04 09:37:23;;;;;;;44.63;20.10;;;4.90;99.90;;;;;;4950273;28;20482;-82
2023/03/04 09:39:49;;;;;;;34.00;17.77;;;4.80;99.90;;;;;;4949995;28;20234;-82
2023/03/04 09:42:24;;;;;;;42.50;20.53;;;4.50;99.90;;;;;;4953576;28;20712;-81
2023/03/04 09:44:52;;;;;;;35.65;19.98;;;4.40;99.90;;;;;;4938455;28;20179;-83
2023/03/04 09:47:20;;;;;;;43.00;20.77;;;4.60;99.90;;;;;;4948545;28;20200;-82
2023/03/04 09:49:53;;;;;;;42.13;19.35;;;4.60;99.90;;;;;;4950723;28;20251;-85
2023/03/04 09:52:30;;;;;;;36.97;20.23;;;4.50;99.90;;;;;;4931669;29;20188;-83
2023/03/04 09:55:03;;;;;;;46.85;21.33;;;4.30;99.90;;;;;;4949537;28;20271;-83
2023/03/04 09:57:59;;;;;;;38.88;20.55;;;3.80;99.90;;;;;;4941077;28;20312;-84
2023/03/04 10:00:31;;;;;;;38.88;20.90;;;4.00;99.90;;;;;;4943058;28;20239;-84
2023/03/04 10:03:19;;;;;;;40.83;20.00;;;4.00;99.90;;;;;;4964882;28;20176;-83
2023/03/04 10:05:55;;;;;;;46.15;20.75;;;3.90;99.90;;;;;;4965146;28;20397;-83
2023/03/04 10:08:43;;;;;;;38.00;20.23;;;4.20;99.90;;;;;;4948015;28;20191;-81
2023/03/04 10:11:14;;;;;;;49.33;22.00;;;4.40;99.90;;;;;;4936988;28;20199;-84
2023/03/04 10:14:02;;;;;;;43.45;21.67;;;3.80;99.90;;;;;;4933190;29;20185;-86
2023/03/04 10:16:39;;;;;;;49.30;22.55;;;3.50;99.90;;;;;;4935881;28;20208;-82
2023/03/04 10:19:23;;;;;;;47.17;21.45;;;3.30;99.90;;;;;;4935358;28;20206;-83
2023/03/04 10:21:51;;;;;;;41.95;19.95;;;3.30;99.90;;;;;;4941817;28;20203;-82
2023/03/04 10:24:23;;;;;;;42.40;18.05;;;3.30;99.90;;;;;;4950611;28;20862;-81
2023/03/04 10:26:53;;;;;;;51.90;18.63;;;3.50;99.90;;;;;;4935152;28;20231;-83
2023/03/04 10:29:21;;;;;;;50.05;22.67;;;3.30;99.90;;;;;;4950324;28;20181;-82
2023/03/04 10:31:48;;;;;;;53.10;19.75;;;3.00;99.90;;;;;;4922831;28;20178;-83
2023/03/04 10:34:17;;;;;;;47.75;21.98;;;2.80;99.90;;;;;;4933444;28;20181;-83
2023/03/04 10:36:53;;;;;;;48.53;22.50;;;2.90;99.90;;;;;;4933588;28;20376;-82
2023/03/04 10:39:40;;;;;;;45.33;22.70;;;2.80;99.90;;;;;;4935404;28;20188;-85
2023/03/04 10:42:22;;;;;;;49.97;24.30;;;2.90;99.90;;;;;;4931942;28;20184;-84
2023/03/04 10:44:55;;;;;;;54.28;20.20;;;3.00;99.90;;;;;;4937015;28;20250;-81
2023/03/04 10:47:27;;;;;;;49.38;22.38;;;2.90;99.90;;;;;;4935408;28;20196;-82
2023/03/04 10:49:58;;;;;;;50.03;22.35;;;2.80;99.90;;;;;;4927672;28;20210;-84
2023/03/04 10:52:40;;;;;;;47.97;22.83;;;2.40;99.90;;;;;;4951079;28;20216;-82
2023/03/04 10:55:18;;;;;;;60.85;26.15;;;2.40;99.90;;;;;;4949954;28;20312;-83
2023/03/04 10:57:48;;;;;;;65.40;25.50;;;2.50;99.90;;;;;;4936223;28;20552;-84
2023/03/04 11:00:16;;;;;;;56.60;27.10;;;2.60;99.90;;;;;;4925203;29;20231;-83
2023/03/04 11:02:43;;;;;;;63.72;26.77;;;2.80;99.90;;;;;;4953636;28;20184;-84
2023/03/04 11:05:08;;;;;;;52.88;23.38;;;3.00;99.90;;;;;;4936110;28;20818;-84
2023/03/04 11:07:43;;;;;;;56.50;26.50;;;3.00;99.90;;;;;;4943647;29;20463;-83
2023/03/04 11:10:35;;;;;;;68.10;25.38;;;2.90;99.90;;;;;;4934620;28;20223;-83
2023/03/04 11:13:15;;;;;;;50.58;23.40;;;2.90;99.90;;;;;;4951342;28;20217;-84
2023/03/04 11:15:56;;;;;;;59.08;25.55;;;2.80;99.90;;;;;;4939211;28;20635;-83
2023/03/04 11:18:30;;;;;;;48.95;24.20;;;2.70;99.90;;;;;;4933162;28;20482;-83
2023/03/04 11:20:57;;;;;;;53.10;25.83;;;2.80;99.90;;;;;;4935946;28;20230;-83
2023/03/04 11:23:39;;;;;;;50.13;21.73;;;2.90;99.90;;;;;;4951618;28;20199;-83
2023/03/04 11:26:15;;;;;;;55.60;20.70;;;2.90;99.90;;;;;;4937727;28;20251;-83
2023/03/04 11:29:14;;;;;;;50.45;23.20;;;2.80;99.90;;;;;;4933585;28;20179;-84
2023/03/04 11:31:49;;;;;;;55.17;22.70;;;2.70;99.90;;;;;;4934995;28;20669;-83
2023/03/04 11:34:57;;;;;;;38.65;19.90;;;2.90;99.90;;;;;;4938127;29;20184;-83
2023/03/04 11:37:34;;;;;;;54.05;22.60;;;2.90;99.90;;;;;;4871445;29;20904;-83
2023/03/04 11:40:14;;;;;;;51.67;21.55;;;3.00;99.90;;;;;;4874983;29;20246;-84
2023/03/04 11:42:50;;;;;;;57.88;22.40;;;2.90;99.90;;;;;;4908754;29;20192;-82
2023/03/04 11:45:23;;;;;;;46.08;22.33;;;2.90;99.90;;;;;;4945644;28;20184;-84
2023/03/04 11:48:11;;;;;;;43.63;20.67;;;3.00;99.90;;;;;;4951790;28;20700;-86
2023/03/04 11:50:56;;;;;;;54.72;22.98;;;3.00;99.90;;;;;;4950378;28;20228;-83
2023/03/04 11:53:50;;;;;;;42.72;19.98;;;2.80;99.90;;;;;;4932093;28;20835;-82
2023/03/04 11:56:38;;;;;;;59.38;23.65;;;2.80;99.90;;;;;;4952647;28;20279;-86
2023/03/04 11:59:14;;;;;;;49.90;23.00;;;2.80;99.90;;;;;;4987626;23;20235;-83
2023/03/04 12:02:07;;;;;;;44.92;22.73;;;2.90;99.90;;;;;;4982224;28;20494;-83
2023/03/04 12:05:09;;;;;;;47.58;20.08;;;3.00;99.90;;;;;;4963201;28;20180;-83
2023/03/04 12:08:10;;;;;;;46.92;21.80;;;3.30;99.90;;;;;;4888471;29;20217;-82
2023/03/04 12:10:40;;;;;;;46.72;21.52;;;3.20;99.90;;;;;;4951607;28;20192;-81
2023/03/04 12:13:21;;;;;;;43.65;21.48;;;3.30;99.90;;;;;;4959012;28;20177;-83
2023/03/04 12:16:07;;;;;;;43.67;21.20;;;3.30;99.90;;;;;;4942851;29;20181;-81
2023/03/04 12:18:45;;;;;;;46.63;23.40;;;3.20;99.90;;;;;;4955307;28;20220;-81
2023/03/04 12:21:25;;;;;;;46.67;20.60;;;3.20;99.90;;;;;;4953215;29;20467;-81
2023/03/04 12:24:47;;;;;;;58.67;20.38;;;3.20;99.90;;;;;;4956598;28;20177;-81
2023/03/04 12:27:20;;;;;;;49.13;21.95;;;3.30;99.90;;;;;;4913514;28;20223;-81
2023/03/04 12:30:06;;;;;;;52.15;21.52;;;3.20;99.90;;;;;;4955028;29;20220;-81
2023/03/04 12:33:01;;;;;;;46.45;21.92;;;3.30;99.90;;;;;;4961035;29;20228;-81
2023/03/04 12:35:39;;;;;;;44.05;21.63;;;3.40;99.90;;;;;;4958102;29;20604;-84
2023/03/04 12:38:28;;;;;;;53.33;22.95;;;3.30;99.90;;;;;;4963924;28;20749;-83
2023/03/04 12:41:12;;;;;;;59.33;25.65;;;3.30;99.90;;;;;;4959797;28;20711;-81
2023/03/04 12:43:46;;;;;;;46.08;20.30;;;3.50;99.90;;;;;;4957682;28;20415;-83
2023/03/04 12:46:12;;;;;;;48.28;20.88;;;3.50;99.90;;;;;;4960724;29;20183;-83
2023/03/04 12:48:41;;;;;;;44.93;22.20;;;3.50;99.90;;;;;;4954720;29;20284;-83
2023/03/04 12:51:16;;;;;;;41.90;19.98;;;3.80;99.90;;;;;;4946047;29;20192;-84
2023/03/04 12:54:13;;;;;;;43.25;20.88;;;3.80;99.90;;;;;;4939970;29;20180;-83
2023/03/04 12:56:52;;;;;;;47.03;21.83;;;3.90;99.90;;;;;;4943860;28;20614;-84
2023/03/04 12:59:21;;;;;;;41.65;19.52;;;4.00;99.90;;;;;;4958574;29;20260;-83
2023/03/04 13:02:15;;;;;;;38.05;18.60;;;4.00;99.90;;;;;;4955276;28;20189;-83
2023/03/04 13:04:58;;;;;;;42.75;21.40;;;3.90;99.90;;;;;;4947451;28;20241;-83
2023/03/04 13:07:49;;;;;;;52.90;19.40;;;3.70;99.90;;;;;;4957384;28;20403;-81
2023/03/04 13:10:22;;;;;;;43.13;20.27;;;3.70;99.90;;;;;;4958611;28;20188;-82
2023/03/04 13:12:52;;;;;;;45.25;21.60;;;3.60;99.90;;;;;;4956530;29;20455;-81
2023/03/04 13:15:21;;;;;;;58.53;20.00;;;3.50;99.90;;;;;;4958137;29;20226;-81
2023/03/04 13:17:49;;;;;;;47.83;19.25;;;3.40;99.90;;;;;;4942748;29;20243;-81
2023/03/04 13:20:35;;;;;;;42.50;17.83;;;3.50;99.90;;;;;;4957897;29;20196;-81
2023/03/04 13:23:12;;;;;;;42.30;18.80;;;3.70;99.90;;;;;;4956922;29;20164;-81
2023/03/04 13:25:42;;;;;;;44.30;20.50;;;3.60;99.90;;;;;;4958558;28;20191;-81
2023/03/04 13:28:08;;;;;;;38.75;18.40;;;3.60;99.90;;;;;;4959512;29;20225;-81
2023/03/04 13:30:33;;;;;;;47.83;19.37;;;3.40;99.90;;;;;;4958862;29;20188;-81
2023/03/04 13:33:08;;;;;;;38.70;18.47;;;3.40;99.90;;;;;;4956483;29;20259;-81
2023/03/04 13:36:00;;;;;;;48.60;21.17;;;3.50;99.90;;;;;;4955876;28;20224;-81
2023/03/04 13:38:26;;;;;;;35.88;18.27;;;3.50;99.90;;;;;;4939791;29;20423;-82
2023/03/04 13:41:15;;;;;;;44.27;18.70;;;3.50;99.90;;;;;;4959706;29;20276;-82
2023/03/04 13:43:46;;;;;;;36.67;20.23;;;3.40;99.90;;;;;;4961589;28;20183;-81
2023/03/04 13:46:18;;;;;;;43.28;18.30;;;3.40;99.90;;;;;;4955641;28;20211;-82
2023/03/04 13:48:49;;;;;;;44.60;19.17;;;3.30;99.90;;;;;;4954556;28;20188;-81
2023/03/04 13:51:36;;;;;;;38.13;17.67;;;3.30;99.90;;;;;;4957482;29;20215;-81
2023/03/04 13:54:02;;;;;;;36.95;18.58;;;3.50;99.90;;;;;;4959134;29;20263;-81
2023/03/04 13:56:41;;;;;;;39.47;19.20;;;3.40;99.90;;;;;;4953417;29;20173;-81
2023/03/04 13:59:07;;;;;;;36.03;17.90;;;3.30;99.90;;;;;;4956758;29;20232;-81
2023/03/04 14:01:40;;;;;;;55.53;19.07;;;3.40;99.90;;;;;;4960541;28;20212;-82
2023/03/04 14:04:32;;;;;;;36.33;17.88;;;3.40;99.90;;;;;;4958148;29;20200;-81
2023/03/04 14:07:00;;;;;;;48.33;18.13;;;3.40;99.90;;;;;;4952319;28;20172;-81
2023/03/04 14:09:29;;;;;;;45.10;19.42;;;3.40;99.90;;;;;;4957245;29;20182;-81
2023/03/04 14:12:13;;;;;;;39.75;19.30;;;3.40;99.90;;;;;;4959670;28;20189;-81
2023/03/04 14:14:48;;;;;;;43.45;17.80;;;3.50;99.90;;;;;;4938940;29;20213;-81
2023/03/04 14:17:35;;;;;;;46.65;19.45;;;3.60;99.90;;;;;;4940382;28;20177;-81
2023/03/04 14:20:03;;;;;;;32.85;15.98;;;3.60;99.90;;;;;;4949914;29;20294;-81
2023/03/04 14:22:30;;;;;;;49.80;18.67;;;3.60;99.90;;;;;;4959841;28;20185;-82
2023/03/04 14:25:17;;;;;;;37.78;18.27;;;3.50;99.90;;;;;;4955605;29;20177;-82
2023/03/04 14:27:43;;;;;;;45.00;22.02;;;3.50;99.90;;;;;;4956514;29;20228;-82
2023/03/04 14:30:29;;;;;;;46.80;20.40;;;3.40;99.90;;;;;;4959548;28;20192;-81
2023/03/04 14:32:57;;;;;;;46.58;17.83;;;3.40;99.90;;;;;;4955823;29;20268;-81
2023/03/04 14:35:28;;;;;;;40.13;16.90;;;3.60;99.90;;;;;;4960489;29;20303;-82
2023/03/04 14:38:06;;;;;;;38.72;18.15;;;3.70;99.90;;;;;;4957813;29;20224;-82
2023/03/04 14:40:39;;;;;;;44.45;17.83;;;3.70;99.90;;;;;;4956403;29;20224;-81
2023/03/04 14:43:14;;;;;;;36.25;19.55;;;3.70;99.90;;;;;;4955970;29;20189;-82
2023/03/04 14:45:42;;;;;;;44.92;17.02;;;3.70;99.90;;;;;;4955268;28;20195;-82
2023/03/04 14:48:09;;;;;;;43.38;18.30;;;3.70;99.90;;;;;;4956897;28;20208;-82
2023/03/04 14:50:35;;;;;;;31.30;15.00;;;3.80;99.90;;;;;;4957185;28;20216;-81